Time;durP1;ratioP1;P1;durP2;ratioP2;P2;SDS_P1;SDS_P2;PMS_P1;PMS_P2;Temp;Humidity;BMP_temperature;BMP_pressure;BME280_temperature;BME280_humidity;BME280_pressure;Samples;Min_cycle;Max_cycle;Signal;HPM_P1;HPM_P2
2021/08/30 00:02:15;;;;;;;10.52;5.82;;;;;;;15.83;87.04;102289.59;5072595;28;20036;-66
2021/08/30 00:04:40;;;;;;;10.77;6.07;;;;;;;15.84;87.19;102292.22;5071457;28;20112;-68
2021/08/30 00:07:06;;;;;;;11.88;5.88;;;;;;;15.82;87.09;102290.53;5072625;28;20155;-69
2021/08/30 00:09:31;;;;;;;13.38;6.20;;;;;;;15.82;87.43;102298.53;5071368;28;20155;-81
2021/08/30 00:11:56;;;;;;;9.73;5.78;;;;;;;15.82;86.96;102288.72;5071362;28;20036;-69
2021/08/30 00:14:22;;;;;;;11.70;6.55;;;;;;;15.80;86.98;102290.56;5085453;28;20169;-70
2021/08/30 00:16:47;;;;;;;10.27;5.97;;;;;;;15.83;86.86;102292.25;5091703;28;20028;-68
2021/08/30 00:19:13;;;;;;;9.73;6.13;;;;;;;15.79;87.32;102293.31;5089467;28;20451;-69
2021/08/30 00:21:38;;;;;;;16.35;6.50;;;;;;;15.78;87.24;102295.13;5091310;28;20024;-69
2021/08/30 00:24:04;;;;;;;11.98;6.00;;;;;;;15.80;87.54;102289.72;5088984;28;20052;-68
2021/08/30 00:26:29;;;;;;;9.90;5.57;;;;;;;15.80;87.43;102290.56;5089771;28;20021;-68
2021/08/30 00:28:54;;;;;;;14.48;6.80;;;;;;;15.77;87.46;102284.47;5088442;28;20392;-72
2021/08/30 00:31:20;;;;;;;10.65;6.75;;;;;;;15.75;87.36;102287.22;5089884;28;20437;-68
2021/08/30 00:33:45;;;;;;;11.27;6.68;;;;;;;15.75;87.41;102291.72;5088382;28;20114;-70
2021/08/30 00:36:10;;;;;;;12.65;7.00;;;;;;;15.77;87.49;102296.06;5085348;28;20032;-70
2021/08/30 00:38:36;;;;;;;13.98;6.57;;;;;;;15.79;87.38;102301.31;5070435;28;20055;-75
2021/08/30 00:41:02;;;;;;;11.27;6.60;;;;;;;15.79;87.55;102301.31;5069561;28;20115;-68
2021/08/30 00:43:28;;;;;;;12.05;6.28;;;;;;;15.77;87.28;102292.50;5070651;28;20029;-68
2021/08/30 00:45:53;;;;;;;12.18;7.07;;;;;;;15.75;87.35;102299.72;5069619;28;20031;-68
2021/08/30 00:48:19;;;;;;;13.27;7.03;;;;;;;15.73;87.79;102303.31;5069473;28;20033;-68
2021/08/30 00:50:44;;;;;;;15.35;6.15;;;;;;;15.75;87.43;102299.72;5073781;28;20143;-68
2021/08/30 00:53:09;;;;;;;11.98;6.40;;;;;;;15.70;88.04;102295.47;5073665;28;20035;-70
2021/08/30 00:55:35;;;;;;;13.15;7.15;;;;;;;15.71;87.90;102301.66;5070647;28;20048;-68
2021/08/30 00:58:01;;;;;;;14.65;7.53;;;;;;;15.70;87.81;102300.78;5069017;28;20092;-68
2021/08/30 01:00:27;;;;;;;13.57;7.78;;;;;;;15.70;88.54;102294.56;5070499;28;20032;-69
2021/08/30 01:02:53;;;;;;;15.23;7.63;;;;;;;15.69;88.36;102300.84;5069713;28;20032;-81
2021/08/30 01:05:19;;;;;;;12.40;7.45;;;;;;;15.67;87.98;102295.56;5070162;28;20105;-68
2021/08/30 01:08:08;;;;;;;13.25;7.07;;;;;;;15.66;88.78;102296.50;5069117;28;20036;-68
2021/08/30 01:10:51;;;;;;;13.15;7.47;;;;;;;15.64;88.28;102300.16;5068541;28;20025;-69
2021/08/30 01:13:38;;;;;;;16.15;8.02;;;;;;;15.61;88.36;102303.84;5069279;28;20168;-69
2021/08/30 01:16:07;;;;;;;13.80;7.32;;;;;;;15.63;88.29;102303.81;5069979;28;20021;-69
2021/08/30 01:18:34;;;;;;;23.15;8.13;;;;;;;15.63;88.40;102310.00;5070175;28;20052;-68
2021/08/30 01:21:17;;;;;;;14.27;7.68;;;;;;;15.63;88.66;102303.81;5070077;28;20008;-69
2021/08/30 01:23:47;;;;;;;15.60;8.00;;;;;;;15.64;88.61;102313.53;5030842;28;1076359;-70
2021/08/30 01:26:14;;;;;;;18.05;7.93;;;;;;;15.64;88.68;102318.88;5071125;28;20049;-67
2021/08/30 01:28:58;;;;;;;13.55;7.90;;;;;;;15.63;88.63;102318.00;5069770;28;20048;-69
2021/08/30 01:31:55;;;;;;;15.88;7.93;;;;;;;15.63;88.75;102314.47;5070668;28;20021;-69
2021/08/30 01:34:22;;;;;;;17.55;7.93;;;;;;;15.66;88.47;102315.19;5069887;28;20044;-68
2021/08/30 01:36:50;;;;;;;15.63;7.82;;;;;;;15.64;88.64;102309.06;5071815;28;20103;-68
2021/08/30 01:39:16;;;;;;;15.82;8.70;;;;;;;15.64;88.73;102310.84;5069163;28;20464;-68
2021/08/30 01:41:42;;;;;;;15.02;8.40;;;;;;;15.63;88.74;102317.16;5070420;28;20107;-70
2021/08/30 01:44:08;;;;;;;13.07;7.80;;;;;;;15.63;88.69;102311.81;5069617;28;20029;-68
2021/08/30 01:46:36;;;;;;;12.95;7.68;;;;;;;15.62;88.83;102310.91;5068712;28;20124;-69
2021/08/30 01:49:01;;;;;;;13.18;7.38;;;;;;;15.64;88.83;102311.75;5069930;28;20036;-68
2021/08/30 01:51:27;;;;;;;12.73;7.70;;;;;;;15.64;88.56;102311.75;5070714;28;20417;-69
2021/08/30 01:53:55;;;;;;;13.90;7.78;;;;;;;15.65;88.81;102315.25;5069345;28;20380;-68
2021/08/30 01:56:21;;;;;;;16.40;7.72;;;;;;;15.65;88.53;102323.28;5068872;28;20498;-69
2021/08/30 02:01:33;;;;;;;14.82;8.50;;;;;;;15.64;88.80;102317.09;5069371;28;20231;-68
2021/08/30 02:03:58;;;;;;;15.13;7.65;;;;;;;15.67;88.64;102316.94;5070156;28;20078;-68
2021/08/30 02:06:24;;;;;;;15.07;8.40;;;;;;;15.65;88.87;102313.47;5068979;28;20040;-69
2021/08/30 02:08:49;;;;;;;14.90;8.52;;;;;;;15.63;88.84;102312.66;5073573;28;20401;-72
2021/08/30 02:11:21;;;;;;;13.52;8.02;;;;;;;15.65;88.89;102315.25;5069731;28;20097;-69
2021/08/30 02:13:46;;;;;;;16.27;8.68;;;;;;;15.64;89.06;102317.09;5068717;28;20035;-68
2021/08/30 02:16:12;;;;;;;15.55;8.52;;;;;;;15.67;88.88;102324.94;5068759;28;20028;-69
2021/08/30 02:18:45;;;;;;;16.52;8.35;;;;;;;15.65;88.89;102315.25;5068511;28;20055;-69
2021/08/30 02:21:38;;;;;;;18.20;9.77;;;;;;;15.65;89.36;102318.81;5070835;28;20102;-72
2021/08/30 02:24:30;;;;;;;17.15;8.88;;;;;;;15.63;89.44;102315.34;5068118;28;20106;-68
2021/08/30 02:27:04;;;;;;;17.38;10.23;;;;;;;15.59;89.39;102320.84;5068168;28;20111;-75
2021/08/30 02:29:42;;;;;;;19.63;10.32;;;;;;;15.57;89.86;102307.59;5068832;28;20495;-68
2021/08/30 02:32:08;;;;;;;19.95;10.77;;;;;;;15.57;89.23;102303.13;5085786;28;20086;-68
2021/08/30 02:34:36;;;;;;;20.20;10.45;;;;;;;15.56;89.25;102317.41;5088601;28;20056;-71
2021/08/30 02:37:02;;;;;;;20.52;11.52;;;;;;;15.55;89.24;102304.97;5088483;28;20101;-69
2021/08/30 02:39:29;;;;;;;24.83;11.18;;;;;;;15.56;89.29;102309.41;5088879;28;20123;-74
2021/08/30 02:41:56;;;;;;;18.88;10.68;;;;;;;15.61;89.04;102305.66;5075795;28;20040;-70
2021/08/30 02:44:22;;;;;;;24.35;11.55;;;;;;;15.61;89.12;102305.66;5068260;28;20425;-72
2021/08/30 02:46:47;;;;;;;22.48;11.20;;;;;;;15.60;89.17;102299.47;5068352;28;20037;-69
2021/08/30 02:49:14;;;;;;;22.70;11.18;;;;;;;15.61;89.09;102301.16;5068127;28;20542;-68
2021/08/30 02:51:41;;;;;;;17.15;10.30;;;;;;;15.62;88.77;102304.72;5073589;28;20031;-72
2021/08/30 02:54:08;;;;;;;19.67;10.75;;;;;;;15.63;88.26;102291.31;5088349;28;20451;-68
2021/08/30 02:56:36;;;;;;;19.23;11.05;;;;;;;15.61;88.64;102302.97;5087953;28;20107;-69
2021/08/30 02:59:02;;;;;;;22.75;11.05;;;;;;;15.60;88.10;102299.47;5088368;28;20207;-78
2021/08/30 03:01:28;;;;;;;22.00;11.00;;;;;;;15.62;87.57;102292.22;5086562;28;20123;-67
2021/08/30 03:03:55;;;;;;;18.95;11.30;;;;;;;15.63;87.06;102285.09;5068054;28;20086;-68
2021/08/30 03:06:22;;;;;;;18.48;10.15;;;;;;;15.65;86.48;102283.22;5088147;28;20108;-68
2021/08/30 03:08:47;;;;;;;22.85;10.48;;;;;;;15.66;86.79;102280.47;5088459;28;20464;-72
2021/08/30 03:11:14;;;;;;;20.10;10.40;;;;;;;15.68;85.58;102281.28;5087827;28;20069;-69
2021/08/30 03:13:41;;;;;;;18.02;10.27;;;;;;;15.66;86.19;102280.47;5076684;28;20090;-69
2021/08/30 03:16:07;;;;;;;19.88;10.40;;;;;;;15.60;85.78;102269.19;5068678;28;20129;-73
2021/08/30 03:18:34;;;;;;;19.92;10.15;;;;;;;15.53;86.04;102272.13;5068182;28;20427;-66
2021/08/30 03:21:00;;;;;;;18.80;10.65;;;;;;;15.45;86.56;102273.38;5067727;28;20021;-69
2021/08/30 03:23:26;;;;;;;17.55;11.27;;;;;;;15.37;87.07;102271.94;5068833;28;20114;-67
2021/08/30 03:25:52;;;;;;;21.17;10.55;;;;;;;15.29;87.08;102271.38;5067488;28;20044;-69
2021/08/30 03:28:19;;;;;;;19.42;10.63;;;;;;;15.24;87.29;102265.34;5081932;28;20051;-73
2021/08/30 03:30:47;;;;;;;20.63;11.02;;;;;;;15.18;87.77;102262.94;5087926;28;20028;-70
2021/08/30 03:33:13;;;;;;;19.73;10.60;;;;;;;15.12;87.80;102264.06;5081903;28;20071;-74
2021/08/30 03:35:39;;;;;;;22.92;11.73;;;;;;;15.11;87.86;102266.81;5068866;28;20215;-78
2021/08/30 03:38:06;;;;;;;21.08;11.10;;;;;;;15.06;88.12;102254.53;5068845;28;20445;-76
2021/08/30 03:40:32;;;;;;;22.55;11.13;;;;;;;15.00;88.09;102252.13;5067489;28;20101;-68
2021/08/30 03:42:59;;;;;;;18.55;11.70;;;;;;;14.94;88.54;102257.69;5067843;28;20456;-68
2021/08/30 03:45:27;;;;;;;21.40;11.90;;;;;;;14.88;88.76;102261.47;5086242;28;20028;-68
2021/08/30 03:47:54;;;;;;;21.48;12.80;;;;;;;14.86;88.91;102263.34;5085929;28;20024;-67
2021/08/30 03:50:19;;;;;;;19.08;12.48;;;;;;;14.82;89.10;102267.06;5047047;28;20025;-68
2021/08/30 03:52:46;;;;;;;25.15;13.07;;;;;;;14.81;89.42;102270.66;5081589;28;20024;-69
2021/08/30 03:55:11;;;;;;;23.58;13.48;;;;;;;14.78;89.40;102269.91;5087494;28;20395;-67
2021/08/30 03:57:38;;;;;;;24.63;12.75;;;;;;;14.74;89.58;102271.81;5086102;28;20104;-68
2021/08/30 04:00:06;;;;;;;21.95;12.70;;;;;;;14.70;89.74;102272.88;5086166;28;20108;-69
2021/08/30 04:02:32;;;;;;;23.02;12.45;;;;;;;14.68;90.03;102267.59;5087635;28;20071;-70
2021/08/30 04:04:59;;;;;;;22.67;13.40;;;;;;;14.66;90.21;102265.94;5087861;28;20028;-71
2021/08/30 04:07:25;;;;;;;23.77;13.30;;;;;;;14.64;90.17;102273.09;5084226;28;20036;-68
2021/08/30 04:09:51;;;;;;;25.40;14.40;;;;;;;14.62;90.33;102274.97;5087384;28;20416;-68
2021/08/30 04:12:18;;;;;;;29.60;14.18;;;;;;;14.63;90.13;102272.22;5091032;28;20032;-68
2021/08/30 04:14:44;;;;;;;30.17;14.35;;;;;;;14.65;90.34;102273.03;5090906;28;20068;-68
2021/08/30 04:17:10;;;;;;;23.60;14.30;;;;;;;14.63;90.33;102277.56;5087685;28;20050;-68
2021/08/30 04:19:35;;;;;;;24.75;13.95;;;;;;;14.65;90.27;102281.03;5090858;28;20039;-68
2021/08/30 04:22:01;;;;;;;26.02;14.35;;;;;;;14.62;90.26;102275.81;5090789;28;20024;-68
2021/08/30 04:24:27;;;;;;;26.48;13.77;;;;;;;14.62;90.41;102270.47;5091130;28;20036;-68
2021/08/30 04:26:52;;;;;;;26.92;15.10;;;;;;;14.59;90.28;102271.47;5090815;28;20409;-68
2021/08/30 04:29:17;;;;;;;25.75;14.00;;;;;;;14.61;90.50;102263.41;5071272;28;20037;-72
2021/08/30 04:31:42;;;;;;;25.95;13.63;;;;;;;14.56;90.39;102268.91;5070545;28;20047;-69
2021/08/30 04:34:08;;;;;;;27.10;15.18;;;;;;;14.60;90.78;102267.00;5070798;28;20024;-68
2021/08/30 04:36:33;;;;;;;30.55;15.38;;;;;;;14.58;90.92;102271.53;5071198;28;20105;-69
2021/08/30 04:38:59;;;;;;;24.80;13.65;;;;;;;14.54;91.01;102270.78;5071826;28;20452;-68
2021/08/30 04:41:24;;;;;;;28.38;14.73;;;;;;;14.54;90.93;102272.56;5070906;28;20394;-70
2021/08/30 04:43:51;;;;;;;24.67;14.18;;;;;;;14.53;91.25;102273.50;5070253;28;20032;-69
2021/08/30 04:46:17;;;;;;;32.20;14.63;;;;;;;14.54;91.66;102275.22;5070530;28;20042;-71
2021/08/30 04:48:42;;;;;;;27.63;14.68;;;;;;;14.58;91.40;102268.88;5072369;28;20496;-66
2021/08/30 04:51:08;;;;;;;27.05;12.93;;;;;;;14.61;91.59;102273.22;5070237;28;20103;-68
2021/08/30 04:53:33;;;;;;;27.77;15.00;;;;;;;14.62;91.62;102281.16;5070404;28;20020;-69
2021/08/30 04:55:58;;;;;;;25.20;13.38;;;;;;;14.65;91.53;102278.38;5070245;28;20065;-69
2021/08/30 04:58:24;;;;;;;26.05;13.32;;;;;;;14.67;91.34;102275.69;5071008;28;20088;-69
2021/08/30 05:00:49;;;;;;;26.02;13.32;;;;;;;14.70;91.61;102280.88;5070834;28;20031;-68
2021/08/30 05:03:14;;;;;;;30.92;14.50;;;;;;;14.73;91.69;102286.97;5069940;28;20052;-69
2021/08/30 05:05:40;;;;;;;22.27;12.27;;;;;;;14.83;91.36;102291.94;5069597;28;20356;-71
2021/08/30 05:08:06;;;;;;;21.17;12.70;;;;;;;14.89;91.22;102294.34;5070577;28;20368;-69
2021/08/30 05:10:31;;;;;;;28.52;13.75;;;;;;;14.95;90.68;102301.22;5070947;28;20082;-71
2021/08/30 05:12:56;;;;;;;22.20;12.35;;;;;;;15.02;90.28;102298.25;5069992;28;20417;-69
2021/08/30 05:15:22;;;;;;;25.52;13.55;;;;;;;15.06;90.25;102297.22;5069294;28;20078;-70
2021/08/30 05:17:49;;;;;;;24.23;13.70;;;;;;;15.08;89.72;102306.00;5069644;28;20024;-69
2021/08/30 05:20:15;;;;;;;23.92;14.50;;;;;;;15.13;89.80;102311.19;5072308;28;20024;-78
2021/08/30 05:22:40;;;;;;;25.55;13.68;;;;;;;15.15;89.78;102316.44;5080541;28;20048;-70
2021/08/30 05:25:05;;;;;;;26.10;13.57;;;;;;;15.16;89.62;102316.38;5089333;28;20394;-71
2021/08/30 05:27:31;;;;;;;26.52;14.45;;;;;;;15.22;89.52;102304.59;5089486;28;20063;-69
2021/08/30 05:29:56;;;;;;;27.35;13.65;;;;;;;15.24;89.40;102314.28;5088039;28;20115;-69
2021/08/30 05:32:22;;;;;;;25.67;14.63;;;;;;;15.31;89.04;102322.03;5089760;28;20356;-66
2021/08/30 05:34:47;;;;;;;24.45;13.77;;;;;;;15.35;89.00;102316.50;5088074;28;20043;-70
2021/08/30 05:37:12;;;;;;;28.25;13.75;;;;;;;15.40;89.01;102319.84;5089952;28;20032;-75
2021/08/30 05:39:38;;;;;;;21.90;12.48;;;;;;;15.46;89.09;102318.72;5088068;28;20403;-69
2021/08/30 05:42:03;;;;;;;23.33;12.95;;;;;;;15.53;88.54;102322.84;5089756;28;20020;-69
2021/08/30 05:44:29;;;;;;;25.23;13.52;;;;;;;15.55;88.31;102331.69;5087922;28;20024;-75
2021/08/30 05:46:54;;;;;;;28.52;14.27;;;;;;;15.60;88.33;102336.84;5089353;28;20051;-69
2021/08/30 05:49:21;;;;;;;28.42;12.82;;;;;;;15.63;88.44;102335.84;5087452;28;20032;-69
2021/08/30 05:51:49;;;;;;;25.58;13.30;;;;;;;15.67;88.51;102337.44;5085286;28;20068;-68
2021/08/30 05:54:14;;;;;;;23.05;13.40;;;;;;;15.67;88.55;102334.78;5079874;28;20092;-70
2021/08/30 05:56:40;;;;;;;24.90;14.13;;;;;;;15.72;88.14;102335.44;5086562;28;20243;-69
2021/08/30 05:59:05;;;;;;;33.55;14.35;;;;;;;15.72;88.86;102332.78;5078720;28;20240;-67
2021/08/30 06:01:31;;;;;;;24.17;13.00;;;;;;;15.77;88.40;102333.44;5064527;28;20315;-66
2021/08/30 06:03:56;;;;;;;29.65;14.52;;;;;;;15.77;88.39;102336.13;5058747;28;20536;-65
2021/08/30 06:06:22;;;;;;;29.75;14.43;;;;;;;15.79;88.20;102334.22;5061402;28;20394;-69
2021/08/30 06:08:47;;;;;;;22.77;13.82;;;;;;;15.83;87.64;102337.66;5069421;28;20036;-68
2021/08/30 06:11:12;;;;;;;28.75;15.18;;;;;;;15.79;87.66;102342.25;5071480;28;20116;-67
2021/08/30 06:13:38;;;;;;;24.92;14.93;;;;;;;15.81;87.55;102340.41;5069178;28;20033;-74
2021/08/30 06:16:03;;;;;;;29.15;15.20;;;;;;;15.81;87.71;102342.19;5064999;28;20111;-70
2021/08/30 06:18:29;;;;;;;30.75;15.55;;;;;;;15.83;88.00;102341.22;5084528;28;20055;-72
2021/08/30 06:20:54;;;;;;;28.13;15.13;;;;;;;15.93;87.89;102343.50;5087888;28;20130;-72
2021/08/30 06:23:19;;;;;;;25.55;14.80;;;;;;;15.95;87.09;102339.81;5070716;28;20032;-68
2021/08/30 06:25:45;;;;;;;24.38;14.38;;;;;;;15.94;87.56;102339.91;5068618;28;20052;-73
2021/08/30 06:28:10;;;;;;;25.88;14.10;;;;;;;15.98;87.60;102336.16;5077378;28;20125;-70
2021/08/30 06:30:36;;;;;;;23.67;13.73;;;;;;;16.04;87.35;102335.88;5070061;28;20017;-73
2021/08/30 06:33:02;;;;;;;24.58;14.43;;;;;;;16.08;87.27;102336.63;5063716;28;20024;-72
2021/08/30 06:35:27;;;;;;;25.15;15.05;;;;;;;16.11;86.58;102342.66;5074594;28;20457;-70
2021/08/30 06:37:52;;;;;;;23.45;13.38;;;;;;;16.12;86.48;102341.75;5088243;28;20020;-66
2021/08/30 06:40:19;;;;;;;25.42;15.63;;;;;;;16.12;86.71;102343.56;5087572;28;20029;-72
2021/08/30 06:42:44;;;;;;;22.42;13.88;;;;;;;16.10;86.73;102346.31;5070571;28;20032;-69
2021/08/30 06:45:10;;;;;;;20.40;13.93;;;;;;;16.13;86.28;102346.16;5076832;28;20035;-68
2021/08/30 06:47:36;;;;;;;22.95;14.00;;;;;;;16.15;86.65;102344.28;5072138;28;20047;-73
2021/08/30 06:50:06;;;;;;;22.70;12.90;;;;;;;16.24;86.62;102342.13;5076343;28;20024;-69
2021/08/30 06:52:31;;;;;;;21.60;13.43;;;;;;;16.30;86.16;102341.88;5069674;28;20101;-68
2021/08/30 06:54:57;;;;;;;30.50;15.05;;;;;;;16.35;86.41;102339.84;5066084;28;20032;-68
2021/08/30 06:57:22;;;;;;;20.83;12.73;;;;;;;16.41;85.98;102342.25;5070275;28;20167;-67
2021/08/30 06:59:47;;;;;;;24.23;13.82;;;;;;;16.45;85.70;102349.19;5055106;28;20120;-73
2021/08/30 07:02:13;;;;;;;27.88;13.45;;;;;;;16.49;85.61;102345.44;5068354;28;20017;-68
2021/08/30 07:04:38;;;;;;;25.77;13.23;;;;;;;16.52;85.50;102352.44;5068962;28;20020;-65
2021/08/30 07:07:03;;;;;;;19.40;12.63;;;;;;;16.58;85.29;102343.28;5069354;28;20021;-69
2021/08/30 07:09:29;;;;;;;20.35;12.85;;;;;;;16.53;85.38;102346.16;5075543;28;20035;-67
2021/08/30 07:11:54;;;;;;;20.58;12.60;;;;;;;16.54;85.08;102348.75;5071420;28;20403;-69
2021/08/30 07:14:19;;;;;;;20.42;13.00;;;;;;;16.55;85.28;102344.28;5070311;28;20109;-72
2021/08/30 07:16:45;;;;;;;24.90;13.73;;;;;;;16.57;84.97;102346.91;5069523;28;20035;-65
2021/08/30 07:19:12;;;;;;;23.60;12.48;;;;;;;16.58;84.77;102346.81;5077247;28;20028;-69
2021/08/30 07:21:37;;;;;;;23.65;12.55;;;;;;;16.60;84.68;102344.94;5069165;28;20034;-67
2021/08/30 07:24:03;;;;;;;22.95;12.40;;;;;;;16.69;84.40;102351.69;5070227;28;20028;-66
2021/08/30 07:26:28;;;;;;;17.40;12.10;;;;;;;16.65;84.22;102350.06;5069174;28;20036;-75
2021/08/30 07:28:54;;;;;;;21.33;13.13;;;;;;;16.66;84.54;102349.13;5068007;28;20032;-69
2021/08/30 07:31:20;;;;;;;21.15;12.25;;;;;;;16.72;83.77;102354.19;5073011;28;20096;-66
2021/08/30 07:33:45;;;;;;;20.00;12.23;;;;;;;16.81;83.58;102350.22;5070820;28;20032;-66
2021/08/30 07:36:10;;;;;;;21.35;11.93;;;;;;;16.88;83.06;102343.66;5067450;28;20165;-74
2021/08/30 07:38:36;;;;;;;20.08;12.52;;;;;;;16.97;82.93;102347.72;5069294;28;20413;-76
2021/08/30 07:41:01;;;;;;;23.38;12.07;;;;;;;17.02;82.59;102348.34;5084472;28;20195;-74
2021/08/30 07:43:27;;;;;;;20.60;11.48;;;;;;;17.01;82.65;102350.19;5089487;28;20028;-76
2021/08/30 07:45:52;;;;;;;19.77;11.90;;;;;;;17.01;82.03;102357.34;5082927;28;20562;-70
2021/08/30 07:48:17;;;;;;;20.48;12.18;;;;;;;16.98;82.56;102362.84;5080818;28;20043;-66
2021/08/30 07:50:43;;;;;;;20.00;11.80;;;;;;;16.99;82.78;102359.22;5073015;28;20036;-65
2021/08/30 07:53:08;;;;;;;21.42;12.02;;;;;;;17.06;82.90;102363.34;5056573;28;20046;-69
2021/08/30 07:55:35;;;;;;;21.25;11.70;;;;;;;17.07;82.33;102373.09;5091735;28;20024;-75
2021/08/30 07:58:02;;;;;;;23.75;11.82;;;;;;;17.06;82.30;102367.81;5075804;28;20082;-65
2021/08/30 08:00:27;;;;;;;21.38;12.00;;;;;;;16.99;82.75;102368.09;5074027;28;20100;-70
2021/08/30 08:02:53;;;;;;;20.08;11.75;;;;;;;17.01;82.56;102373.41;5078009;28;20016;-73
2021/08/30 08:05:19;;;;;;;23.65;12.43;;;;;;;17.03;83.05;102375.06;5082191;28;20036;-69
2021/08/30 08:07:44;;;;;;;21.63;11.75;;;;;;;17.14;82.64;102373.69;5074378;28;20120;-75
2021/08/30 08:10:10;;;;;;;19.17;11.23;;;;;;;17.19;82.64;102377.88;5075003;28;20082;-72
2021/08/30 08:12:35;;;;;;;22.02;11.95;;;;;;;17.28;82.47;102376.56;5073599;28;20024;-68
2021/08/30 08:15:01;;;;;;;21.98;11.07;;;;;;;17.44;82.04;102381.16;5078691;28;20035;-69
2021/08/30 08:17:26;;;;;;;22.33;11.50;;;;;;;17.49;80.76;102387.16;5091965;28;20118;-67
2021/08/30 08:19:52;;;;;;;21.75;11.40;;;;;;;17.54;81.68;102387.78;5090260;28;20024;-70
2021/08/30 08:22:17;;;;;;;24.75;12.38;;;;;;;17.48;81.35;102382.72;5089326;28;20059;-70
2021/08/30 08:24:42;;;;;;;20.88;11.35;;;;;;;17.49;82.02;102382.69;5088594;28;20128;-68
2021/08/30 08:27:07;;;;;;;19.70;11.60;;;;;;;17.52;82.10;102392.38;5072692;28;20036;-68
2021/08/30 08:29:33;;;;;;;19.83;10.95;;;;;;;17.55;81.50;102377.97;5072201;28;20476;-68
2021/08/30 08:31:58;;;;;;;19.52;11.20;;;;;;;17.63;81.12;102379.28;5073029;28;20024;-66
2021/08/30 08:34:23;;;;;;;19.75;10.82;;;;;;;17.74;82.04;102384.13;5083634;28;20040;-65
2021/08/30 08:36:49;;;;;;;22.20;11.13;;;;;;;17.80;80.65;102373.09;5070327;28;20044;-68
2021/08/30 08:39:14;;;;;;;21.58;11.40;;;;;;;17.76;81.37;102382.25;5072314;28;20100;-67
2021/08/30 08:41:39;;;;;;;22.30;10.50;;;;;;;17.83;80.69;102375.59;5067008;28;20053;-69
2021/08/30 08:44:07;;;;;;;20.92;10.48;;;;;;;17.92;81.06;102373.41;5070832;28;20413;-75
2021/08/30 08:46:36;;;;;;;18.50;11.55;;;;;;;17.99;80.70;102369.47;5076734;28;20025;-68
2021/08/30 08:49:01;;;;;;;16.73;10.48;;;;;;;18.07;80.26;102374.44;5070847;28;20024;-67
2021/08/30 08:51:27;;;;;;;19.42;10.55;;;;;;;18.10;80.31;102369.78;5072767;28;20055;-67
2021/08/30 08:53:52;;;;;;;21.33;10.30;;;;;;;18.17;79.85;102378.38;5072930;28;20036;-68
2021/08/30 08:56:24;;;;;;;19.55;10.45;;;;;;;18.04;80.03;102371.94;5076881;28;20086;-68
2021/08/30 08:58:50;;;;;;;17.52;11.13;;;;;;;18.04;80.78;102378.16;5081483;28;20032;-68
2021/08/30 09:01:15;;;;;;;21.42;10.02;;;;;;;18.11;79.74;102376.91;5081156;28;20417;-68
2021/08/30 09:03:53;;;;;;;19.17;10.05;;;;;;;18.20;79.91;102371.97;5074714;28;20029;-74
2021/08/30 09:06:47;;;;;;;20.25;10.43;;;;;;;18.28;79.94;102367.09;5070397;28;20029;-66
2021/08/30 09:09:17;;;;;;;19.48;9.65;;;;;;;18.38;79.27;102371.03;5071979;28;20035;-69
2021/08/30 09:11:51;;;;;;;19.85;10.05;;;;;;;18.43;79.62;102366.28;5076758;28;20056;-67
2021/08/30 09:14:22;;;;;;;20.52;10.68;;;;;;;18.43;79.15;102363.59;5057002;28;20032;-67
2021/08/30 09:17:00;;;;;;;21.65;10.15;;;;;;;18.44;78.39;102368.00;5072025;28;20029;-69
2021/08/30 09:19:26;;;;;;;19.27;9.93;;;;;;;18.36;78.63;102370.22;5067372;28;20514;-68
2021/08/30 09:21:51;;;;;;;16.08;9.23;;;;;;;18.46;79.41;102370.59;5069997;28;20028;-69
2021/08/30 09:24:25;;;;;;;18.90;9.68;;;;;;;18.47;78.53;102375.88;5066046;28;20188;-68
2021/08/30 09:26:56;;;;;;;22.95;9.27;;;;;;;18.65;78.63;102365.09;5072647;28;20032;-69
2021/08/30 09:29:24;;;;;;;20.65;9.40;;;;;;;18.71;78.15;102372.81;5075653;28;20028;-67
2021/08/30 09:32:04;;;;;;;20.17;9.85;;;;;;;18.76;78.02;102369.88;5066463;28;20473;-65
2021/08/30 09:34:45;;;;;;;16.40;8.65;;;;;;;18.84;76.51;102373.00;5081546;28;20040;-66
2021/08/30 09:37:18;;;;;;;18.45;9.10;;;;;;;19.03;76.62;102370.19;5087505;28;20031;-67
2021/08/30 09:39:51;;;;;;;21.42;8.68;;;;;;;19.22;76.08;102372.72;5071690;28;20033;-70
2021/08/30 09:42:17;;;;;;;20.02;9.60;;;;;;;19.23;75.57;102373.56;5060592;28;20020;-68
2021/08/30 09:44:43;;;;;;;19.55;9.25;;;;;;;19.26;75.33;102376.94;5076781;28;20028;-68
2021/08/30 09:47:17;;;;;;;19.65;9.18;;;;;;;19.20;74.41;102377.28;5085607;28;20043;-65
2021/08/30 09:49:50;;;;;;;18.70;9.45;;;;;;;19.09;74.95;102372.53;5079051;28;20039;-68
2021/08/30 09:52:17;;;;;;;25.95;9.50;;;;;;;19.14;75.12;102372.25;5076862;28;20031;-67
2021/08/30 09:54:42;;;;;;;21.30;9.32;;;;;;;19.22;74.75;102378.06;5077452;28;20036;-68
2021/08/30 09:57:08;;;;;;;22.48;9.57;;;;;;;19.30;75.35;102381.16;5070413;28;20399;-69
2021/08/30 09:59:37;;;;;;;16.98;8.57;;;;;;;19.39;74.85;102378.94;5082699;28;20024;-66
2021/08/30 10:02:03;;;;;;;14.57;8.10;;;;;;;19.62;74.25;102375.75;5049486;28;20112;-70
2021/08/30 10:04:29;;;;;;;17.58;8.07;;;;;;;19.74;72.95;102378.66;5079356;28;20028;-65
2021/08/30 10:06:54;;;;;;;15.75;8.57;;;;;;;19.68;72.87;102376.34;5068391;28;20452;-67
2021/08/30 10:09:21;;;;;;;15.80;8.57;;;;;;;19.69;73.37;102372.72;5074596;28;20043;-67
2021/08/30 10:11:54;;;;;;;16.25;9.32;;;;;;;19.78;72.90;102367.66;5070282;28;20024;-69
2021/08/30 10:14:23;;;;;;;19.20;9.38;;;;;;;19.81;73.13;102377.38;5071209;28;20075;-66
2021/08/30 10:16:50;;;;;;;15.60;8.30;;;;;;;19.79;74.10;102374.75;5059295;28;20033;-69
2021/08/30 10:19:34;;;;;;;21.27;8.98;;;;;;;19.63;73.62;102372.13;5064089;28;20056;-66
2021/08/30 10:22:13;;;;;;;16.70;8.02;;;;;;;19.71;74.72;102377.03;5067967;28;20481;-66
2021/08/30 10:24:43;;;;;;;16.33;8.50;;;;;;;19.90;72.28;102379.53;5070864;28;20447;-68
2021/08/30 10:27:10;;;;;;;19.77;9.30;;;;;;;19.82;73.82;102373.72;5077883;28;20020;-67
2021/08/30 10:29:41;;;;;;;19.77;8.82;;;;;;;19.93;71.46;102375.78;5091766;28;20115;-69
2021/08/30 10:32:18;;;;;;;15.32;7.85;;;;;;;19.86;72.30;102375.28;5092986;28;20024;-76
2021/08/30 10:34:44;;;;;;;18.35;7.93;;;;;;;19.90;71.04;102376.84;5082444;28;20036;-68
2021/08/30 10:37:18;;;;;;;15.57;7.63;;;;;;;20.04;71.45;102380.50;5081105;28;20352;-69
2021/08/30 10:39:46;;;;;;;17.02;7.82;;;;;;;19.94;71.14;102375.69;5075925;28;20036;-68
2021/08/30 10:42:14;;;;;;;17.02;7.90;;;;;;;20.06;71.47;102378.59;5074714;28;20077;-69
2021/08/30 10:45:03;;;;;;;16.67;7.93;;;;;;;19.95;72.01;102381.94;5085869;28;20095;-72
2021/08/30 10:47:34;;;;;;;17.20;8.38;;;;;;;19.91;72.64;102383.06;5081667;28;20039;-67
2021/08/30 10:49:59;;;;;;;15.13;8.20;;;;;;;20.06;72.42;102390.19;5070485;28;20424;-65
2021/08/30 10:52:36;;;;;;;18.10;9.20;;;;;;;19.91;71.93;102381.25;5076714;28;20066;-69
2021/08/30 10:55:17;;;;;;;16.25;7.82;;;;;;;19.74;72.85;102381.34;5065766;28;20016;-64
2021/08/30 10:57:49;;;;;;;14.65;7.43;;;;;;;19.62;72.77;102388.34;5064456;28;20087;-67
2021/08/30 11:00:14;;;;;;;17.05;7.93;;;;;;;19.60;73.21;102385.75;5075626;28;20035;-67
2021/08/30 11:02:46;;;;;;;16.77;7.40;;;;;;;20.04;72.38;102384.06;5077028;28;20080;-68
2021/08/30 11:05:12;;;;;;;17.98;7.90;;;;;;;20.70;70.19;102380.94;5069349;28;20115;-69
2021/08/30 11:07:38;;;;;;;17.08;7.65;;;;;;;21.12;69.00;102373.78;5087270;28;20468;-66
2021/08/30 11:10:07;;;;;;;22.33;7.10;;;;;;;21.53;67.99;102378.25;5073640;28;20115;-65
2021/08/30 11:12:33;;;;;;;15.85;8.25;;;;;;;21.51;66.53;102380.19;5067994;28;20024;-66
2021/08/30 11:14:59;;;;;;;15.18;7.78;;;;;;;21.89;65.95;102383.97;5068445;28;20031;-67
2021/08/30 11:17:29;;;;;;;19.02;8.10;;;;;;;21.99;65.13;102379.66;5068576;28;20047;-66